Time;durP1;ratioP1;P1;durP2;ratioP2;P2;SDS_P1;SDS_P2;PMS_P1;PMS_P2;Temp;Humidity;BMP_temperature;BMP_pressure;BME280_temperature;BME280_humidity;BME280_pressure;Samples;Min_cycle;Max_cycle;Signal;HPM_P1;HPM_P2
2020/12/14 00:01:17;;;;;;;34.58;23.75;;;;;;;9.79;74.42;98872.00;5058457;28;20047;-80
2020/12/14 00:03:43;;;;;;;34.60;22.42;;;;;;;8.98;73.86;98753.84;5076030;28;20059;-82
2020/12/14 00:06:08;;;;;;;35.67;23.88;;;;;;;9.65;73.72;98853.59;5075996;28;20036;-82
2020/12/14 00:08:34;;;;;;;34.40;23.52;;;;;;;9.48;73.98;98834.59;5076005;28;20085;-81
2020/12/14 00:10:59;;;;;;;32.92;22.58;;;;;;;9.36;73.89;98807.94;5075973;28;20032;-79
2020/12/14 00:13:24;;;;;;;36.85;24.33;;;;;;;9.49;74.03;98834.41;5058209;28;20036;-81
2020/12/14 00:15:50;;;;;;;35.55;23.67;;;;;;;9.68;74.15;98859.34;5058217;28;20136;-82
2020/12/14 00:18:15;;;;;;;36.67;23.08;;;;;;;9.39;73.92;98833.91;5076067;28;20107;-81
2020/12/14 00:20:41;;;;;;;36.80;24.38;;;;;;;9.76;73.79;98897.94;5058068;28;20044;-81
2020/12/14 00:23:06;;;;;;;33.33;22.58;;;;;;;9.64;73.72;98878.31;5058099;28;20166;-80
2020/12/14 00:25:31;;;;;;;31.58;21.75;;;;;;;9.37;73.78;98832.44;5075588;28;20035;-81
2020/12/14 00:27:57;;;;;;;31.90;21.65;;;;;;;9.83;73.92;98904.09;5074918;28;20056;-82
2020/12/14 00:30:22;;;;;;;34.13;23.40;;;;;;;9.82;73.97;98897.19;5075588;28;20027;-82
2020/12/14 00:32:47;;;;;;;41.70;25.70;;;;;;;9.67;73.80;98875.34;5075743;28;20032;-78
2020/12/14 00:35:13;;;;;;;38.60;24.60;;;;;;;9.83;73.93;98906.72;5082515;28;20024;-78
2020/12/14 00:37:38;;;;;;;34.17;23.33;;;;;;;9.46;74.05;98853.22;5078215;28;20035;-80
2020/12/14 00:40:04;;;;;;;33.22;23.42;;;;;;;9.82;73.94;98911.16;5057964;28;20059;-80
2020/12/14 00:42:29;;;;;;;34.42;22.60;;;;;;;9.14;74.01;98815.00;5075435;28;20035;-79
2020/12/14 00:44:54;;;;;;;37.20;25.02;;;;;;;9.71;74.13;98903.75;5057658;28;20460;-78
2020/12/14 00:47:20;;;;;;;32.38;22.77;;;;;;;9.48;74.28;98859.13;5075378;28;20059;-80
2020/12/14 00:49:45;;;;;;;32.95;23.40;;;;;;;9.51;74.30;98868.47;5075062;28;20055;-78
2020/12/14 00:52:11;;;;;;;33.08;22.02;;;;;;;9.82;74.21;98926.19;5075249;28;20032;-77
2020/12/14 00:54:36;;;;;;;32.22;23.33;;;;;;;9.72;74.12;98902.75;5074845;28;20029;-80
2020/12/14 00:57:01;;;;;;;34.25;23.17;;;;;;;9.46;74.45;98855.84;5057475;28;20343;-80
2020/12/14 00:59:27;;;;;;;33.47;21.85;;;;;;;9.85;74.05;98917.88;5075040;28;20350;-79
2020/12/14 01:01:53;;;;;;;36.53;22.38;;;;;;;9.38;74.00;98844.63;5074913;28;20021;-77
2020/12/14 01:04:20;;;;;;;33.03;22.67;;;;;;;9.83;74.06;98920.72;5075048;28;20103;-78
2020/12/14 01:06:45;;;;;;;31.17;21.77;;;;;;;9.38;74.24;98853.34;5074961;28;20033;-78
2020/12/14 01:09:11;;;;;;;31.52;21.55;;;;;;;9.82;74.23;98934.91;5074908;28;20024;-77
2020/12/14 01:11:36;;;;;;;32.55;21.05;;;;;;;9.31;74.21;98849.00;5074906;28;20031;-80
2020/12/14 01:14:01;;;;;;;30.30;20.52;;;;;;;9.51;73.83;98863.19;5075130;28;20093;-80
2020/12/14 01:16:27;;;;;;;27.25;18.92;;;;;;;9.52;73.97;98860.38;5075037;28;20411;-78
2020/12/14 01:18:52;;;;;;;29.67;20.73;;;;;;;9.92;73.99;98917.94;5056905;28;20036;-78
2020/12/14 01:21:22;;;;;;;25.08;18.35;;;;;;;9.92;73.91;98912.69;5074864;28;20028;-81
2020/12/14 01:23:48;;;;;;;26.50;19.30;;;;;;;9.90;73.88;98915.50;5074680;28;20107;-80
2020/12/14 01:26:14;;;;;;;33.10;21.30;;;;;;;9.63;73.85;98869.59;5074723;28;20040;-80
2020/12/14 01:28:39;;;;;;;29.13;19.42;;;;;;;9.70;74.18;98878.41;5074669;28;20028;-81
2020/12/14 01:31:04;;;;;;;31.27;20.77;;;;;;;9.75;73.63;98889.22;5074777;28;20024;-78
2020/12/14 01:33:30;;;;;;;32.38;21.02;;;;;;;9.62;73.82;98872.41;5056865;28;20036;-81
2020/12/14 01:35:56;;;;;;;30.35;21.50;;;;;;;9.60;73.95;98875.25;5074848;28;20032;-80
2020/12/14 01:38:21;;;;;;;30.92;21.52;;;;;;;9.75;73.99;98896.31;5074458;28;20074;-80
2020/12/14 01:40:47;;;;;;;29.85;21.38;;;;;;;9.74;74.21;98898.13;5056735;28;20370;-79
2020/12/14 01:43:13;;;;;;;34.88;23.73;;;;;;;9.79;74.04;98901.00;5079292;28;20074;-80
2020/12/14 01:45:38;;;;;;;27.70;20.27;;;;;;;9.74;73.97;98890.22;5075538;28;20028;-78
2020/12/14 01:48:07;;;;;;;32.78;22.38;;;;;;;9.37;73.71;98840.34;5056884;28;20032;-80
2020/12/14 01:50:32;;;;;;;34.13;21.30;;;;;;;9.51;73.94;98848.19;5056539;28;20070;-79
2020/12/14 01:52:59;;;;;;;31.00;22.10;;;;;;;9.81;74.17;98895.53;5056741;28;20028;-79
2020/12/14 01:55:29;;;;;;;36.75;23.23;;;;;;;9.77;73.92;98899.56;5074271;28;20035;-79
2020/12/14 01:57:54;;;;;;;33.25;22.55;;;;;;;9.56;73.93;98885.34;5074308;28;20024;-78
2020/12/14 02:00:20;;;;;;;32.00;21.13;;;;;;;9.67;74.26;98885.88;5056658;28;20020;-80
2020/12/14 02:02:45;;;;;;;32.75;22.35;;;;;;;9.51;74.27;98866.66;5074282;28;20331;-82
2020/12/14 02:05:10;;;;;;;30.23;20.63;;;;;;;9.24;73.95;98825.22;5074414;28;20081;-80
2020/12/14 02:07:36;;;;;;;28.48;20.15;;;;;;;9.12;74.00;98816.19;5056578;28;20052;-78
2020/12/14 02:10:02;;;;;;;33.72;23.40;;;;;;;9.01;74.10;98796.44;5074261;28;20427;-76
2020/12/14 02:12:28;;;;;;;34.45;22.63;;;;;;;9.60;74.02;98896.31;5074482;28;20462;-76
2020/12/14 02:14:55;;;;;;;32.15;21.48;;;;;;;9.77;74.01;98907.47;5074243;28;20027;-76
2020/12/14 02:17:22;;;;;;;34.25;22.83;;;;;;;9.69;74.21;98881.25;5074227;28;20055;-75
2020/12/14 02:19:48;;;;;;;33.30;23.00;;;;;;;9.41;74.04;98849.50;5074113;28;20032;-76
2020/12/14 02:22:16;;;;;;;30.80;21.80;;;;;;;9.76;74.33;98895.28;5077381;28;20032;-76
2020/12/14 02:24:55;;;;;;;36.45;25.13;;;;;;;9.70;74.43;98904.78;5081946;28;20039;-76
2020/12/14 02:27:20;;;;;;;39.22;26.45;;;;;;;9.34;74.50;98836.28;5056667;28;20493;-76
2020/12/14 02:29:47;;;;;;;40.75;26.52;;;;;;;9.41;73.93;98870.59;5073965;28;20029;-75
2020/12/14 02:32:16;;;;;;;36.85;24.63;;;;;;;9.65;74.48;98903.66;5074295;28;20375;-75
2020/12/14 02:34:42;;;;;;;35.78;23.75;;;;;;;9.63;74.59;98903.03;5056252;28;20048;-76
2020/12/14 02:37:09;;;;;;;37.92;25.73;;;;;;;9.30;74.23;98848.19;5074066;28;20107;-76
2020/12/14 02:39:37;;;;;;;36.50;25.58;;;;;;;9.46;74.70;98874.28;5056067;28;20035;-75
2020/12/14 02:42:13;;;;;;;40.10;27.92;;;;;;;9.46;74.25;98882.19;5074054;28;20020;-76
2020/12/14 02:44:39;;;;;;;46.20;30.02;;;;;;;9.43;74.44;98879.13;5073952;28;20025;-75
2020/12/14 02:47:05;;;;;;;45.08;28.73;;;;;;;9.59;74.36;98901.78;5056303;28;20064;-76
2020/12/14 02:49:31;;;;;;;41.83;28.65;;;;;;;9.66;74.40;98924.59;5073825;28;20059;-75
2020/12/14 02:51:56;;;;;;;45.88;29.48;;;;;;;9.40;74.38;98888.22;5077100;28;20028;-75
2020/12/14 02:54:22;;;;;;;44.83;29.20;;;;;;;9.53;74.63;98913.88;5077394;28;20427;-77
2020/12/14 02:56:48;;;;;;;46.65;30.35;;;;;;;9.63;74.44;98932.03;5059582;28;20031;-76
2020/12/14 02:59:15;;;;;;;46.05;29.63;;;;;;;9.29;74.65;98883.44;5077445;28;20055;-75
2020/12/14 03:01:41;;;;;;;41.50;26.20;;;;;;;9.62;74.83;98931.22;5077343;28;20394;-76
2020/12/14 03:04:06;;;;;;;46.35;29.90;;;;;;;9.55;74.59;98920.59;5077269;28;20028;-75
2020/12/14 03:06:32;;;;;;;40.90;25.75;;;;;;;9.28;75.03;98870.44;5059588;28;20020;-74
2020/12/14 03:08:58;;;;;;;42.92;28.38;;;;;;;9.62;74.33;98944.41;5077126;28;20075;-75
2020/12/14 03:11:24;;;;;;;41.65;27.35;;;;;;;9.57;74.69;98937.06;5077335;28;20415;-75
2020/12/14 03:13:49;;;;;;;36.97;25.77;;;;;;;9.57;74.85;98936.22;5059256;28;20419;-76
2020/12/14 03:16:16;;;;;;;37.60;26.30;;;;;;;9.44;74.37;98918.47;5077103;28;20419;-76
2020/12/14 03:18:41;;;;;;;40.97;27.63;;;;;;;9.58;74.54;98940.50;5077098;28;20111;-75
2020/12/14 03:21:07;;;;;;;42.53;28.08;;;;;;;9.37;74.37;98922.03;5077137;28;20031;-75
2020/12/14 03:23:33;;;;;;;33.03;22.92;;;;;;;9.56;74.57;98945.97;5076961;28;20419;-75
2020/12/14 03:25:58;;;;;;;37.80;25.60;;;;;;;9.56;74.53;98947.78;5076817;28;20029;-76
2020/12/14 03:28:24;;;;;;;35.95;25.00;;;;;;;9.55;74.28;98957.50;5077044;28;20035;-76
2020/12/14 03:30:50;;;;;;;35.85;25.23;;;;;;;9.04;74.55;98879.50;5072277;28;20008;-76
2020/12/14 03:33:15;;;;;;;37.80;26.05;;;;;;;9.57;74.26;98968.69;5080891;28;20036;-76
2020/12/14 03:35:40;;;;;;;34.03;22.63;;;;;;;9.03;74.23;98885.75;5059136;28;20028;-76
2020/12/14 03:38:06;;;;;;;34.50;23.80;;;;;;;9.57;74.32;98975.75;5077097;28;20032;-75
2020/12/14 03:40:31;;;;;;;33.95;23.02;;;;;;;9.56;74.42;98971.50;5058936;28;20082;-76
2020/12/14 03:42:56;;;;;;;33.25;22.60;;;;;;;9.18;74.35;98921.59;5058721;28;20024;-75
2020/12/14 03:45:22;;;;;;;37.50;24.80;;;;;;;9.29;74.45;98945.84;5058831;28;20496;-76
2020/12/14 03:47:47;;;;;;;31.45;22.23;;;;;;;9.54;74.42;98973.50;5058704;28;20028;-75
2020/12/14 03:50:12;;;;;;;32.55;22.30;;;;;;;9.53;74.61;98980.59;5076547;28;20056;-75
2020/12/14 03:52:38;;;;;;;33.42;24.02;;;;;;;9.16;74.39;98913.06;5076330;28;20027;-75
2020/12/14 03:55:03;;;;;;;35.03;23.63;;;;;;;9.55;74.48;98983.84;5076060;28;20109;-75
2020/12/14 03:57:30;;;;;;;33.33;22.73;;;;;;;9.29;74.36;98945.84;5058706;28;20036;-76
2020/12/14 03:59:55;;;;;;;33.28;24.35;;;;;;;9.51;74.11;98979.97;5076142;28;20048;-75
2020/12/14 04:02:21;;;;;;;32.30;23.05;;;;;;;9.23;74.20;98936.84;5076288;28;20099;-75
2020/12/14 04:04:46;;;;;;;30.67;21.23;;;;;;;9.49;74.40;98978.50;5076096;28;20024;-76
2020/12/14 04:07:11;;;;;;;31.55;23.02;;;;;;;9.51;74.20;98981.78;5076202;28;20029;-75
2020/12/14 04:09:37;;;;;;;27.92;19.55;;;;;;;9.44;74.22;98981.69;5058320;28;20465;-75
2020/12/14 04:12:02;;;;;;;24.40;17.83;;;;;;;9.03;74.34;98925.25;5075953;28;20028;-75
2020/12/14 04:14:28;;;;;;;23.98;17.70;;;;;;;9.39;74.16;98989.34;5076099;28;20334;-75
2020/12/14 04:16:53;;;;;;;28.70;18.33;;;;;;;9.28;74.41;98974.00;5075748;28;20029;-75
2020/12/14 04:19:22;;;;;;;27.75;18.92;;;;;;;9.42;74.07;98982.88;5076118;28;20032;-75
2020/12/14 04:21:49;;;;;;;24.00;17.10;;;;;;;8.96;74.06;98927.00;5075719;28;20059;-75
2020/12/14 04:24:15;;;;;;;24.52;16.77;;;;;;;9.17;74.01;98962.13;5075809;28;20029;-75
2020/12/14 04:26:40;;;;;;;26.67;17.92;;;;;;;9.43;74.15;99000.31;5075612;28;20024;-75
2020/12/14 04:29:05;;;;;;;24.65;16.60;;;;;;;9.28;73.93;98994.25;5075952;28;20035;-75
2020/12/14 04:31:31;;;;;;;27.65;18.20;;;;;;;8.72;74.30;98891.22;5075517;28;20035;-75
2020/12/14 04:33:56;;;;;;;23.13;15.95;;;;;;;9.27;74.28;98996.06;5075422;28;20036;-75
2020/12/14 04:36:22;;;;;;;21.67;15.23;;;;;;;8.96;73.88;98950.69;5057839;28;20101;-76
2020/12/14 04:38:47;;;;;;;22.98;16.27;;;;;;;9.32;74.02;99001.59;5080852;28;20029;-76
2020/12/14 04:41:13;;;;;;;21.80;15.15;;;;;;;8.88;73.87;98923.44;5076648;28;20343;-76
2020/12/14 04:43:41;;;;;;;20.42;14.88;;;;;;;9.24;73.80;98997.25;5075330;28;20032;-75
2020/12/14 04:46:07;;;;;;;17.95;14.30;;;;;;;9.40;74.07;99011.22;5075398;28;20043;-75
2020/12/14 04:48:32;;;;;;;19.65;14.13;;;;;;;9.32;73.41;98990.25;5057625;28;20028;-75
2020/12/14 04:50:59;;;;;;;16.15;12.55;;;;;;;9.35;73.65;99008.34;5075145;28;20086;-75
2020/12/14 04:53:24;;;;;;;19.45;12.93;;;;;;;9.17;73.45;98995.53;5075377;28;20028;-76
2020/12/14 04:55:50;;;;;;;16.13;11.50;;;;;;;9.34;73.70;99020.69;5075285;28;20108;-76
2020/12/14 04:58:15;;;;;;;16.98;12.10;;;;;;;9.28;73.95;99015.34;5075133;28;20032;-75
2020/12/14 05:00:40;;;;;;;16.08;12.02;;;;;;;8.76;73.55;98937.22;5075007;28;20024;-74
2020/12/14 05:03:06;;;;;;;19.05;13.52;;;;;;;8.65;73.67;98943.75;5075121;28;20036;-76
2020/12/14 05:05:31;;;;;;;22.17;15.90;;;;;;;8.69;73.51;98950.28;5075058;28;20028;-76
2020/12/14 05:07:57;;;;;;;24.20;15.80;;;;;;;8.91;73.71;98985.44;5057179;28;20032;-76
2020/12/14 05:10:27;;;;;;;23.20;16.08;;;;;;;9.19;73.55;99033.03;5075025;28;20108;-76
2020/12/14 05:12:52;;;;;;;20.63;14.70;;;;;;;9.17;73.90;99033.22;5056608;28;20021;-76
2020/12/14 05:15:29;;;;;;;24.52;16.00;;;;;;;9.09;73.78;99014.88;5075092;28;20033;-76
2020/12/14 05:18:09;;;;;;;19.65;15.10;;;;;;;9.19;73.69;99038.31;5074856;28;20031;-76
2020/12/14 05:20:35;;;;;;;22.10;15.15;;;;;;;9.24;73.37;99063.13;5075004;28;20025;-76
2020/12/14 05:23:04;;;;;;;22.27;15.48;;;;;;;9.19;73.54;99043.59;5074882;28;20090;-76
2020/12/14 05:25:30;;;;;;;21.77;15.73;;;;;;;8.69;73.67;98963.44;5056992;28;20020;-75
2020/12/14 05:28:04;;;;;;;22.50;14.90;;;;;;;8.66;73.55;98965.63;5074665;28;20404;-77
2020/12/14 05:30:41;;;;;;;20.80;14.30;;;;;;;8.99;73.69;99024.06;5074629;28;20427;-76
2020/12/14 05:33:07;;;;;;;22.52;15.68;;;;;;;8.42;73.82;98927.22;5074802;28;20040;-76
2020/12/14 05:35:40;;;;;;;23.63;16.77;;;;;;;9.22;73.77;99059.84;5074661;28;20056;-76
2020/12/14 05:38:32;;;;;;;20.77;15.23;;;;;;;9.09;73.70;99035.13;5074556;28;20040;-75
2020/12/14 05:41:03;;;;;;;20.77;14.88;;;;;;;9.25;73.50;99061.28;5070009;28;20043;-76
2020/12/14 05:43:32;;;;;;;19.25;13.82;;;;;;;9.20;73.71;99047.84;5074659;28;20093;-75
2020/12/14 05:46:16;;;;;;;17.98;12.70;;;;;;;9.16;73.45;99068.47;5081452;28;20032;-75
2020/12/14 05:48:41;;;;;;;16.38;11.32;;;;;;;9.29;73.30;99067.84;5075396;28;20032;-75
2020/12/14 05:51:08;;;;;;;15.35;11.52;;;;;;;9.31;73.48;99073.75;5074633;28;20028;-76
2020/12/14 05:53:44;;;;;;;17.95;11.80;;;;;;;9.26;73.13;99062.13;5056768;28;20426;-76
2020/12/14 05:56:10;;;;;;;17.38;11.68;;;;;;;9.32;73.51;99071.94;5056538;28;20113;-76
2020/12/14 05:58:37;;;;;;;18.95;13.32;;;;;;;9.28;73.30;99082.00;5074562;28;20116;-75
2020/12/14 06:01:11;;;;;;;20.48;14.65;;;;;;;9.20;73.26;99074.19;5056710;28;20087;-76
2020/12/14 06:03:37;;;;;;;20.48;15.10;;;;;;;8.84;73.59;99045.06;5074476;28;20028;-76
2020/12/14 06:06:06;;;;;;;18.67;13.13;;;;;;;9.13;73.82;99083.81;5056663;28;20031;-76
2020/12/14 06:08:47;;;;;;;17.08;13.65;;;;;;;9.08;73.84;99091.44;5074480;28;20031;-76
2020/12/14 06:11:17;;;;;;;18.35;13.18;;;;;;;8.98;73.83;99069.81;5074329;28;20029;-76
2020/12/14 06:13:51;;;;;;;17.67;13.05;;;;;;;9.01;74.22;99082.63;5056438;28;20102;-76
2020/12/14 06:16:20;;;;;;;20.25;13.68;;;;;;;9.09;73.79;99085.16;5056576;28;20038;-76
2020/12/14 06:18:46;;;;;;;19.98;14.27;;;;;;;9.07;73.92;99076.63;5074305;28;20036;-77
2020/12/14 06:21:16;;;;;;;19.38;14.40;;;;;;;8.60;73.57;99007.44;5074239;28;20024;-81
2020/12/14 06:23:44;;;;;;;20.75;14.35;;;;;;;9.17;73.89;99098.25;5074111;28;20028;-79
2020/12/14 06:26:10;;;;;;;20.52;14.90;;;;;;;8.98;73.38;99054.81;5076721;28;20442;-77
2020/12/14 06:28:35;;;;;;;17.02;13.30;;;;;;;8.70;73.66;99022.16;5078149;28;20028;-82
2020/12/14 06:31:02;;;;;;;17.30;13.07;;;;;;;9.06;73.55;99088.97;5077753;28;20060;-81
2020/12/14 06:33:40;;;;;;;19.73;13.13;;;;;;;9.03;73.67;99101.69;5078039;28;20032;-79
2020/12/14 06:36:17;;;;;;;15.98;12.35;;;;;;;8.84;74.20;99071.38;5060478;28;20033;-79
2020/12/14 06:38:44;;;;;;;14.68;11.60;;;;;;;9.00;73.73;99092.31;5059947;28;20481;-81
2020/12/14 06:41:15;;;;;;;16.42;12.23;;;;;;;8.72;73.58;99044.69;5059880;28;20064;-79
2020/12/14 06:43:41;;;;;;;12.68;9.43;;;;;;;8.75;73.68;99070.63;5072953;28;20033;-78
2020/12/14 06:46:06;;;;;;;13.27;9.98;;;;;;;9.06;73.59;99103.97;5076469;28;20067;-76
2020/12/14 06:48:39;;;;;;;11.82;9.27;;;;;;;9.04;73.71;99111.22;5075269;28;20458;-75
2020/12/14 06:51:06;;;;;;;14.80;10.93;;;;;;;8.94;73.63;99076.44;5057901;28;20086;-76
2020/12/14 06:53:42;;;;;;;14.05;10.77;;;;;;;9.13;73.45;99110.97;5045821;28;20020;-81
2020/12/14 06:56:09;;;;;;;14.85;11.10;;;;;;;9.07;73.58;99111.69;5059520;28;20039;-75
2020/12/14 06:58:54;;;;;;;14.05;10.00;;;;;;;8.37;73.53;98995.31;5073924;28;20067;-77
2020/12/14 07:01:36;;;;;;;17.45;12.43;;;;;;;8.99;73.35;99118.84;5041989;28;20025;-77
2020/12/14 07:04:06;;;;;;;;;;;;;;;8.86;73.86;99117.59;5063689;28;20021;-77
2020/12/14 07:06:32;;;;;;;11.82;8.90;;;;;;;8.43;73.88;99057.75;5077105;28;19912;-80
2020/12/14 07:08:58;;;;;;;12.13;9.60;;;;;;;8.59;74.06;99081.31;5076646;28;20431;-77
2020/12/14 07:11:25;;;;;;;14.85;9.45;;;;;;;8.83;73.79;99123.22;5076903;28;20028;-76
2020/12/14 07:13:52;;;;;;;12.93;9.40;;;;;;;8.55;74.01;99077.38;5058480;28;20035;-83
2020/12/14 07:16:20;;;;;;;11.23;8.27;;;;;;;8.75;73.68;99115.38;5074741;28;20427;-75
2020/12/14 07:18:48;;;;;;;9.98;7.93;;;;;;;8.82;74.02;99132.09;5076585;28;20031;-76
2020/12/14 07:21:17;;;;;;;14.13;10.38;;;;;;;8.83;74.05;99130.28;5058491;28;20059;-79
2020/12/14 07:23:46;;;;;;;14.43;9.70;;;;;;;8.67;74.15;99139.13;5058932;28;20035;-76
2020/12/14 07:26:14;;;;;;;11.20;7.95;;;;;;;8.73;74.01;99153.41;5054742;28;20025;-77
2020/12/14 07:28:44;;;;;;;12.75;8.50;;;;;;;8.65;74.30;99138.50;5057611;28;20036;-76
2020/12/14 07:31:21;;;;;;;10.57;7.70;;;;;;;8.66;74.14;99132.22;5076664;28;20032;-80
2020/12/14 07:33:55;;;;;;;10.98;8.43;;;;;;;8.52;73.78;99114.56;5060314;28;20116;-78
2020/12/14 07:36:21;;;;;;;10.55;7.45;;;;;;;8.73;74.62;99148.97;5073108;28;20043;-76
2020/12/14 07:38:51;;;;;;;12.88;8.63;;;;;;;8.75;74.17;99146.97;5075326;28;20024;-82
2020/12/14 07:41:16;;;;;;;9.95;6.75;;;;;;;8.31;74.22;99057.31;5074221;28;20438;-79
2020/12/14 07:43:53;;;;;;;10.52;7.03;;;;;;;8.80;74.06;99149.06;5075126;28;20085;-83
2020/12/14 07:46:33;;;;;;;6.93;5.40;;;;;;;8.79;74.07;99153.53;5076474;28;20029;-79
2020/12/14 07:49:10;;;;;;;7.57;5.75;;;;;;;8.29;74.06;99078.53;5058418;28;20020;-77
2020/12/14 07:51:38;;;;;;;8.77;6.55;;;;;;;8.56;73.83;99127.22;5056612;28;20453;-79
2020/12/14 07:54:15;;;;;;;9.27;7.25;;;;;;;8.73;74.36;99162.13;5074805;28;20370;-77
2020/12/14 07:59:26;;;;;;;7.32;5.65;;;;;;;8.62;74.19;99166.97;5056108;28;20128;-76
2020/12/14 08:01:52;;;;;;;11.73;8.80;;;;;;;8.24;73.95;99101.91;5074785;28;20191;-76
2020/12/14 08:04:22;;;;;;;9.75;6.57;;;;;;;8.72;74.37;99186.81;5074968;28;20020;-83
2020/12/14 08:06:49;;;;;;;10.40;6.80;;;;;;;8.73;73.85;99188.44;5073550;28;20040;-80
2020/12/14 08:09:20;;;;;;;9.55;6.72;;;;;;;8.05;74.01;99078.66;5075141;28;20028;-82
2020/12/14 08:11:47;;;;;;;9.77;7.10;;;;;;;8.51;74.60;99165.56;5074977;28;20040;-82
2020/12/14 08:14:17;;;;;;;10.48;7.32;;;;;;;8.68;73.90;99167.09;5070727;28;20099;-76
2020/12/14 08:16:45;;;;;;;8.18;6.07;;;;;;;8.47;73.67;99135.31;5055416;28;20020;-77
2020/12/14 08:19:17;;;;;;;9.98;7.28;;;;;;;7.92;74.03;99062.63;5067357;28;20028;-79
2020/12/14 08:21:59;;;;;;;10.65;7.82;;;;;;;8.71;73.74;99181.72;5057759;28;20024;-81
2020/12/14 08:24:24;;;;;;;6.80;5.68;;;;;;;8.13;73.79;99104.91;5071128;28;20047;-83
2020/12/14 08:27:05;;;;;;;9.77;7.28;;;;;;;8.60;74.26;99169.78;5071729;28;20048;-81
2020/12/14 08:29:33;;;;;;;12.90;8.15;;;;;;;8.77;73.72;99197.63;5069419;28;20021;-77
2020/12/14 08:32:00;;;;;;;10.73;7.65;;;;;;;8.82;73.61;99203.19;5072358;28;20086;-75
2020/12/14 08:34:33;;;;;;;13.38;8.20;;;;;;;8.82;73.88;99190.03;5057228;28;20431;-76
2020/12/14 08:37:00;;;;;;;10.45;6.97;;;;;;;8.13;73.35;99088.31;5073035;28;20028;-77
2020/12/14 08:39:26;;;;;;;9.13;6.70;;;;;;;8.35;73.73;99118.31;5073797;28;20484;-76
2020/12/14 08:42:06;;;;;;;9.65;7.25;;;;;;;8.79;73.74;99194.81;5057426;28;20020;-79
2020/12/14 08:44:31;;;;;;;7.97;5.82;;;;;;;8.27;73.76;99122.59;5054468;28;20132;-80
2020/12/14 08:46:56;;;;;;;10.07;6.70;;;;;;;8.75;73.79;99186.44;5070589;28;20103;-77
2020/12/14 08:49:22;;;;;;;9.88;6.97;;;;;;;8.69;73.98;99178.44;5073644;28;20039;-77
2020/12/14 08:51:48;;;;;;;14.05;8.85;;;;;;;8.75;73.60;99188.25;5064768;28;20036;-77
2020/12/14 08:54:16;;;;;;;11.07;7.60;;;;;;;8.77;73.86;99191.53;5073048;28;20051;-77
2020/12/14 08:56:42;;;;;;;11.10;8.02;;;;;;;8.74;74.00;99189.25;5073600;28;20071;-80
2020/12/14 08:59:17;;;;;;;7.85;6.75;;;;;;;8.60;73.81;99170.59;5074068;28;20405;-78
2020/12/14 09:01:54;;;;;;;8.35;6.07;;;;;;;8.79;73.43;99190.38;5055542;28;20032;-78
2020/12/14 09:04:35;;;;;;;7.57;6.00;;;;;;;8.26;73.59;99109.63;5072745;28;20383;-78
2020/12/14 09:07:00;;;;;;;8.70;6.60;;;;;;;8.12;73.62;99084.84;5074802;28;20454;-81
2020/12/14 09:09:34;;;;;;;8.30;5.93;;;;;;;8.80;73.55;99192.00;5074974;28;20028;-78
2020/12/14 09:12:00;;;;;;;7.70;6.50;;;;;;;8.83;73.19;99185.56;5064879;28;20090;-78
2020/12/14 09:14:29;;;;;;;8.40;6.80;;;;;;;8.81;73.06;99185.75;5072927;28;20117;-76
2020/12/14 09:16:58;;;;;;;8.77;6.80;;;;;;;8.31;73.88;99125.69;5078430;22;20025;-78
2020/12/14 09:19:28;;;;;;;7.57;5.95;;;;;;;8.36;73.49;99118.13;5052405;28;20461;-81
2020/12/14 09:21:54;;;;;;;6.35;5.55;;;;;;;8.42;73.65;99140.28;5054540;28;20025;-81
2020/12/14 09:24:21;;;;;;;9.52;6.40;;;;;;;8.68;73.92;99179.44;5046573;28;20032;-77
2020/12/14 09:26:48;;;;;;;11.85;9.57;;;;;;;8.44;73.85;99144.38;5054389;28;20025;-78
2020/12/14 09:29:14;;;;;;;10.65;8.02;;;;;;;8.54;73.48;99157.31;5052476;28;20033;-80
2020/12/14 09:31:50;;;;;;;8.25;6.38;;;;;;;8.56;73.65;99168.50;5052678;28;20355;-79
2020/12/14 09:34:16;;;;;;;13.55;8.75;;;;;;;8.34;74.10;99130.63;5041478;28;20033;-79
2020/12/14 09:36:42;;;;;;;13.65;9.25;;;;;;;8.28;74.05;99116.34;5034608;28;20032;-81
2020/12/14 09:39:07;;;;;;;11.07;7.93;;;;;;;8.28;74.13;99118.97;5035168;28;20541;-78
2020/12/14 09:41:32;;;;;;;12.50;8.90;;;;;;;8.03;73.95;99070.13;5050738;28;20025;-80
2020/12/14 09:43:59;;;;;;;13.10;9.90;;;;;;;8.08;73.83;99073.03;5052488;28;20033;-78
2020/12/14 09:46:28;;;;;;;15.75;10.73;;;;;;;8.66;73.72;99155.91;5047523;28;20078;-77
2020/12/14 09:48:55;;;;;;;11.10;7.45;;;;;;;7.69;74.20;99012.66;5054283;28;20403;-78
2020/12/14 09:51:21;;;;;;;18.42;11.73;;;;;;;8.69;74.14;99174.00;5051763;28;20029;-83
2020/12/14 09:53:46;;;;;;;9.05;6.97;;;;;;;8.48;73.96;99143.03;5054263;28;20036;-76
2020/12/14 09:56:12;;;;;;;10.48;7.32;;;;;;;8.66;74.10;99178.78;5053392;28;20029;-78
2020/12/14 09:58:37;;;;;;;9.38;7.32;;;;;;;8.41;74.28;99125.50;5054311;28;20036;-77
2020/12/14 10:01:03;;;;;;;10.73;7.25;;;;;;;8.72;73.90;99154.41;5057804;28;20025;-77
2020/12/14 10:03:28;;;;;;;11.52;8.20;;;;;;;8.26;73.93;99083.31;5058080;28;20060;-75
2020/12/14 10:05:53;;;;;;;10.60;7.68;;;;;;;8.74;74.04;99166.38;5058204;28;20485;-77
2020/12/14 10:08:19;;;;;;;9.35;7.68;;;;;;;8.54;73.78;99131.81;5050807;28;20431;-86
2020/12/14 10:10:44;;;;;;;10.73;7.78;;;;;;;8.51;74.21;99168.19;5056402;28;20029;-78
2020/12/14 10:13:10;;;;;;;11.45;8.73;;;;;;;8.66;73.86;99184.06;5052074;28;20061;-82
2020/12/14 10:15:35;;;;;;;12.57;9.00;;;;;;;7.72;73.82;99012.31;5049064;28;20024;-77
2020/12/14 10:18:01;;;;;;;10.90;7.55;;;;;;;8.12;73.76;99063.81;5066728;28;20078;-76
2020/12/14 10:20:27;;;;;;;11.23;8.05;;;;;;;8.78;74.02;99156.31;5078183;28;20052;-76
2020/12/14 10:22:53;;;;;;;10.40;7.82;;;;;;;8.55;73.62;99130.81;5076558;28;20028;-81
2020/12/14 10:25:19;;;;;;;10.45;7.53;;;;;;;8.72;73.41;99157.03;5075794;28;20035;-76
2020/12/14 10:27:44;;;;;;;11.27;8.35;;;;;;;8.32;73.74;99098.41;5073037;28;20067;-76
2020/12/14 10:30:09;;;;;;;9.85;7.78;;;;;;;8.70;73.70;99167.72;5074941;28;20028;-76
2020/12/14 10:32:35;;;;;;;15.32;9.52;;;;;;;8.55;73.65;99135.28;5075838;28;20032;-77
2020/12/14 10:35:00;;;;;;;12.98;9.18;;;;;;;8.17;73.59;99072.00;5075940;28;20292;-76
2020/12/14 10:37:25;;;;;;;9.02;7.22;;;;;;;8.26;73.78;99083.31;5077602;28;20441;-78
2020/12/14 10:39:51;;;;;;;9.98;7.78;;;;;;;8.51;74.09;99155.84;5041548;28;20440;-76
2020/12/14 10:42:16;;;;;;;10.63;8.43;;;;;;;8.22;74.44;99114.41;5059662;28;20032;-75
2020/12/14 10:44:42;;;;;;;13.20;8.82;;;;;;;8.22;73.83;99103.06;5077873;28;20435;-77
2020/12/14 10:47:07;;;;;;;10.38;7.72;;;;;;;8.21;73.71;99096.16;5058893;28;20032;-78
2020/12/14 10:49:36;;;;;;;12.57;8.77;;;;;;;8.43;73.94;99148.00;5075968;28;20036;-76
2020/12/14 10:52:02;;;;;;;12.30;8.05;;;;;;;8.62;73.95;99166.97;5055722;28;20509;-75
2020/12/14 10:54:28;;;;;;;8.95;6.93;;;;;;;7.84;73.78;99031.13;5065582;28;20037;-79
2020/12/14 10:56:53;;;;;;;9.60;7.78;;;;;;;8.25;73.97;99110.63;5033985;28;20447;-75
2020/12/14 10:59:19;;;;;;;11.63;8.45;;;;;;;8.68;74.09;99176.78;5060207;28;20028;-78
2020/12/14 11:01:49;;;;;;;10.82;8.13;;;;;;;8.52;73.94;99144.34;5058121;28;20035;-76
2020/12/14 11:04:14;;;;;;;11.68;9.32;;;;;;;8.31;73.70;99109.09;5074329;28;20035;-76
2020/12/14 11:06:40;;;;;;;10.75;7.38;;;;;;;8.78;73.58;99174.75;5057374;28;20024;-76
2020/12/14 11:09:05;;;;;;;20.75;13.07;;;;;;;8.73;73.71;99174.47;5076561;28;20066;-76
2020/12/14 11:11:32;;;;;;;16.25;10.38;;;;;;;8.14;73.97;99076.78;5055497;28;20029;-81
2020/12/14 11:13:59;;;;;;;14.85;9.65;;;;;;;8.48;73.54;99137.78;5075989;28;20039;-77
2020/12/14 11:16:26;;;;;;;13.07;9.27;;;;;;;8.34;73.72;99111.41;5074213;28;20034;-80
2020/12/14 11:18:52;;;;;;;16.02;9.77;;;;;;;8.72;73.66;99168.38;5073209;28;20037;-76
2020/12/14 11:21:17;;;;;;;15.68;9.45;;;;;;;8.74;73.71;99169.03;5075313;28;20119;-77
2020/12/14 11:23:42;;;;;;;10.10;7.45;;;;;;;8.77;73.42;99184.47;5056305;28;20032;-82
2020/12/14 11:26:08;;;;;;;12.52;7.95;;;;;;;8.23;73.16;99112.59;5073445;28;20021;-77
2020/12/14 11:28:33;;;;;;;11.32;6.97;;;;;;;8.46;73.46;99142.41;5054171;28;20131;-78
2020/12/14 11:30:58;;;;;;;9.60;6.80;;;;;;;8.61;73.21;99166.16;5054225;28;20031;-76
2020/12/14 11:33:24;;;;;;;10.13;6.82;;;;;;;8.66;73.46;99169.06;5075647;28;20029;-77